createdAt,value
2022-11-21T00:04:36.140Z,9.83
2022-11-21T00:09:40.173Z,8.90
2022-11-21T00:14:42.904Z,9.03
2022-11-21T00:19:45.787Z,9.00
2022-11-21T00:24:54.005Z,8.27
2022-11-21T00:29:57.062Z,9.53
2022-11-21T00:34:59.759Z,9.07
2022-11-21T00:40:04.721Z,9.13
2022-11-21T00:45:08.111Z,8.83
2022-11-21T00:50:11.432Z,8.67
2022-11-21T00:55:15.622Z,8.03
2022-11-21T01:00:19.133Z,7.47
2022-11-21T01:05:21.913Z,8.80
2022-11-21T01:10:26.225Z,8.70
2022-11-21T01:15:29.151Z,9.03
2022-11-21T01:20:31.929Z,7.70
2022-11-21T01:25:36.599Z,9.53
2022-11-21T01:30:39.530Z,8.60
2022-11-21T01:35:42.310Z,7.80
2022-11-21T01:40:46.600Z,7.97
2022-11-21T01:45:55.167Z,9.00
2022-11-21T01:51:01.167Z,7.67
2022-11-21T01:56:05.579Z,6.63
2022-11-21T02:01:08.731Z,7.93
2022-11-21T02:06:14.528Z,8.40
2022-11-21T02:11:23.264Z,7.83
2022-11-21T02:16:26.768Z,8.50
2022-11-21T02:21:37.930Z,8.27
2022-11-21T02:26:42.471Z,6.67
2022-11-21T02:31:45.180Z,7.37
2022-11-21T02:36:48.686Z,6.87
2022-11-21T02:42:00.183Z,7.90
2022-11-21T02:47:02.883Z,7.67
2022-11-21T02:52:06.216Z,7.80
2022-11-21T02:57:10.529Z,7.93
2022-11-21T03:02:13.242Z,7.83
2022-11-21T03:07:16.006Z,7.47
2022-11-21T03:12:20.112Z,7.87
2022-11-21T03:17:22.951Z,7.03
2022-11-21T03:22:25.987Z,6.20
2022-11-21T03:27:30.066Z,6.40
2022-11-21T03:32:32.802Z,7.07
2022-11-21T03:37:35.551Z,7.47
2022-11-21T03:42:39.659Z,6.13
2022-11-21T03:47:42.512Z,6.80
2022-11-21T03:52:45.204Z,6.80
2022-11-21T03:57:49.576Z,5.97
2022-11-21T04:02:52.367Z,6.53
2022-11-21T04:07:55.096Z,7.80
2022-11-21T04:12:59.195Z,7.97
2022-11-21T04:18:01.856Z,7.40
2022-11-21T04:23:04.607Z,8.77
2022-11-21T04:28:08.679Z,7.50
2022-11-21T04:33:12.073Z,8.27
2022-11-21T04:38:15.343Z,8.90
2022-11-21T04:43:19.405Z,9.53
2022-11-21T04:48:22.096Z,8.77
2022-11-21T04:53:24.962Z,10.83
2022-11-21T04:58:28.989Z,10.23
2022-11-21T05:03:31.723Z,10.60
2022-11-21T05:08:34.591Z,10.73
2022-11-21T05:13:38.664Z,11.20
2022-11-21T05:18:41.579Z,10.77
2022-11-21T05:23:44.316Z,11.67
2022-11-21T05:28:48.697Z,11.20
2022-11-21T05:33:51.428Z,10.57
2022-11-21T05:38:54.127Z,11.70
2022-11-21T05:43:58.248Z,10.93
2022-11-21T05:49:00.997Z,11.60
2022-11-21T05:54:04.000Z,10.93
2022-11-21T05:59:09.263Z,9.90
2022-11-21T06:04:12.064Z,10.27
2022-11-21T06:09:14.827Z,9.03
2022-11-21T06:14:18.862Z,10.53
2022-11-21T06:19:21.620Z,10.07
2022-11-21T06:24:24.462Z,8.67
2022-11-21T06:29:28.543Z,8.80
2022-11-21T06:34:31.321Z,9.07
2022-11-21T06:39:34.063Z,7.80
2022-11-21T06:44:38.136Z,9.20
2022-11-21T06:49:40.908Z,10.33
2022-11-21T06:54:43.715Z,8.40
2022-11-21T06:59:47.861Z,9.03
2022-11-21T07:04:50.743Z,9.87
2022-11-21T07:09:53.435Z,8.80
2022-11-21T07:14:57.494Z,9.83
2022-11-21T07:20:00.276Z,9.80
2022-11-21T07:25:03.038Z,9.57
2022-11-21T07:30:08.807Z,10.47
2022-11-21T07:35:11.633Z,9.77
2022-11-21T07:40:14.844Z,11.00
2022-11-21T07:45:19.123Z,10.87
2022-11-21T07:50:21.981Z,9.67
2022-11-21T07:55:24.726Z,9.57
2022-11-21T08:00:29.641Z,9.80
2022-11-21T08:05:32.388Z,11.27
2022-11-21T08:10:35.326Z,11.60
2022-11-21T08:15:39.716Z,11.07
2022-11-21T08:20:43.196Z,12.73
2022-11-21T08:25:46.386Z,11.00
2022-11-21T08:30:50.576Z,10.37
2022-11-21T08:35:53.364Z,9.93
2022-11-21T08:41:14.686Z,9.63
2022-11-21T08:46:21.398Z,9.27
2022-11-21T08:51:24.313Z,9.03
2022-11-21T08:56:27.281Z,7.37
2022-11-21T09:01:31.508Z,7.20
2022-11-21T09:06:34.548Z,8.07
2022-11-21T09:11:38.046Z,8.50
2022-11-21T09:17:02.206Z,7.67
2022-11-21T09:22:05.291Z,7.77
2022-11-21T09:27:08.104Z,8.30
2022-11-21T09:32:12.220Z,7.77
2022-11-21T09:37:15.012Z,9.90
2022-11-21T09:42:31.633Z,8.40
2022-11-21T09:47:37.252Z,7.77
2022-11-21T09:52:42.626Z,8.03
2022-11-21T09:57:47.084Z,9.30
2022-11-21T10:02:52.149Z,10.00
2022-11-21T10:07:55.419Z,8.30
2022-11-21T10:13:07.928Z,7.70
2022-11-21T10:18:33.269Z,7.70
2022-11-21T10:23:56.054Z,5.83
2022-11-21T10:29:01.932Z,6.03
2022-11-21T10:34:11.671Z,8.27
2022-11-21T10:39:20.186Z,7.80
2022-11-21T10:44:44.275Z,8.83
2022-11-21T10:49:49.336Z,7.87
2022-11-21T10:55:08.608Z,7.80
2022-11-21T11:00:23.527Z,6.63
2022-11-21T11:05:28.637Z,9.03
2022-11-21T11:10:32.755Z,7.60
2022-11-21T11:15:35.776Z,7.97
2022-11-21T11:20:41.792Z,8.57
2022-11-21T11:25:48.086Z,9.30
2022-11-21T11:30:51.475Z,8.87
2022-11-21T11:35:56.677Z,11.40
2022-11-21T11:41:01.935Z,10.17
2022-11-21T11:46:35.984Z,9.40
2022-11-21T11:51:43.179Z,9.80
2022-11-21T11:56:47.245Z,9.97
2022-11-21T12:01:53.033Z,8.87
2022-11-21T12:12:33.783Z,9.47
2022-11-21T12:17:41.644Z,10.10
2022-11-21T12:22:47.108Z,10.07
2022-11-21T12:27:52.897Z,8.70
2022-11-21T12:33:08.089Z,8.37
2022-11-21T12:38:20.953Z,8.33
2022-11-21T12:43:30.890Z,6.43
2022-11-21T12:48:59.030Z,7.73
2022-11-21T12:54:27.989Z,9.33
2022-11-21T12:59:32.448Z,9.53
2022-11-21T13:04:37.685Z,8.77
2022-11-21T13:09:43.844Z,8.50
2022-11-21T13:14:51.452Z,9.17
2022-11-21T13:19:57.137Z,8.73
2022-11-21T13:25:02.218Z,9.80
2022-11-21T13:30:22.850Z,10.97
2022-11-21T13:35:59.352Z,10.87
2022-11-21T13:41:20.637Z,10.77
2022-11-21T13:46:53.092Z,8.07
2022-11-21T13:51:56.435Z,7.63
2022-11-21T13:57:09.511Z,7.27
2022-11-21T14:02:27.312Z,7.70
2022-11-21T14:07:31.968Z,7.30
2022-11-21T14:12:44.365Z,7.73
2022-11-21T14:17:49.029Z,8.07
2022-11-21T14:22:57.724Z,8.10
2022-11-21T14:28:03.131Z,9.30
2022-11-21T14:33:25.687Z,7.87
2022-11-21T14:38:29.496Z,9.20
2022-11-21T14:43:34.552Z,9.67
2022-11-21T14:48:37.832Z,9.10
2022-11-21T14:53:42.355Z,9.57
2022-11-21T14:58:47.106Z,8.37
2022-11-21T15:03:56.870Z,8.93
2022-11-21T15:10:25.717Z,10.43
2022-11-21T15:14:27.501Z,9.60
2022-11-21T15:19:32.519Z,11.70
2022-11-21T15:24:41.669Z,9.97
2022-11-21T15:29:45.862Z,10.10
2022-11-21T15:34:48.997Z,10.33
2022-11-21T15:39:53.235Z,9.67
2022-11-21T15:45:01.118Z,9.47
2022-11-21T15:50:05.979Z,10.77
2022-11-21T15:55:13.646Z,9.23
2022-11-21T16:00:18.770Z,9.30
2022-11-21T16:05:21.517Z,9.57
2022-11-21T16:10:27.799Z,8.87
2022-11-21T16:15:32.331Z,10.10
2022-11-21T16:20:35.157Z,9.33
2022-11-21T16:25:37.888Z,8.50
2022-11-21T16:30:41.996Z,10.20
2022-11-21T16:35:44.758Z,10.23
2022-11-21T16:40:54.295Z,10.27
2022-11-21T16:46:07.777Z,9.93
2022-11-21T16:51:12.327Z,9.90
2022-11-21T16:56:15.345Z,10.17
2022-11-21T17:01:21.448Z,11.67
2022-11-21T17:06:27.028Z,23.10
2022-11-21T17:11:31.516Z,21.17
2022-11-21T17:16:37.599Z,12.63
2022-11-21T17:21:40.457Z,14.03
2022-11-21T17:26:43.157Z,11.23
2022-11-21T17:31:47.376Z,11.70
2022-11-21T17:36:50.234Z,10.93
2022-11-21T17:41:54.641Z,12.43
2022-11-21T17:47:01.855Z,10.10
2022-11-21T17:52:06.948Z,12.17
2022-11-21T17:57:09.649Z,18.97
2022-11-21T18:02:13.851Z,16.20
2022-11-21T18:07:16.625Z,12.33
2022-11-21T18:12:19.480Z,10.97
2022-11-21T18:17:23.613Z,11.47
2022-11-21T18:22:29.477Z,11.30
2022-11-21T18:27:32.553Z,12.80
2022-11-21T18:32:36.618Z,11.03
2022-11-21T18:37:39.447Z,10.07
2022-11-21T18:42:42.233Z,10.87
2022-11-21T18:47:47.835Z,11.27
2022-11-21T18:52:51.307Z,10.30
2022-11-21T18:57:54.067Z,10.17
2022-11-21T19:02:58.181Z,11.70
2022-11-21T19:08:00.920Z,10.67
2022-11-21T19:13:03.892Z,10.13
2022-11-21T19:18:08.259Z,11.53
2022-11-21T19:23:10.997Z,11.03
2022-11-21T19:28:13.819Z,11.20
2022-11-21T19:33:18.922Z,10.03
2022-11-21T19:38:21.789Z,10.03
2022-11-21T19:43:24.937Z,9.57
2022-11-21T19:48:29.012Z,11.07
2022-11-21T19:53:35.627Z,10.40
2022-11-21T19:58:38.447Z,11.33
2022-11-21T20:03:43.869Z,10.47
2022-11-21T20:08:50.061Z,12.27
2022-11-21T20:13:53.218Z,10.43
2022-11-21T20:18:59.642Z,11.00
2022-11-21T20:24:02.498Z,9.53
2022-11-21T20:29:05.569Z,10.73
2022-11-21T20:34:12.560Z,10.77
2022-11-21T20:39:16.288Z,11.10
2022-11-21T20:49:45.398Z,11.27
2022-11-21T20:54:48.170Z,10.30
2022-11-21T20:59:50.885Z,10.23
2022-11-21T21:04:54.916Z,8.90
2022-11-21T21:09:58.807Z,9.30
2022-11-21T21:15:01.558Z,7.90
2022-11-21T21:20:06.950Z,8.00
2022-11-21T21:25:10.008Z,8.63
2022-11-21T21:30:13.370Z,9.37
2022-11-21T21:35:17.528Z,8.30
2022-11-21T21:40:20.258Z,7.97
2022-11-21T21:45:23.276Z,7.70
2022-11-21T21:50:27.363Z,6.57
2022-11-21T21:55:30.451Z,7.13
2022-11-21T22:00:33.146Z,7.50
2022-11-21T22:05:37.208Z,8.63
2022-11-21T22:10:39.934Z,6.97
2022-11-21T22:15:42.639Z,7.27
2022-11-21T22:20:46.690Z,6.00
2022-11-21T22:25:49.913Z,6.30
2022-11-21T22:30:56.040Z,6.07
2022-11-21T22:36:04.875Z,6.47
2022-11-21T22:41:08.823Z,6.80
2022-11-21T22:46:12.531Z,6.83
2022-11-21T22:51:19.861Z,6.93
2022-11-21T22:56:24.116Z,5.80
2022-11-21T23:01:27.443Z,5.90
2022-11-21T23:06:31.605Z,5.53
2022-11-21T23:11:40.422Z,6.53
